| time (UTC) | temp C | wind direction | speed KPH | gust KPH | rain 1hr cm | rain 24hr cm | rain mn cm | humidity % | barometer mb |
| 20260507205350 | 17 | 187 | 3.2 | 9.7 | 0.00 | 0.18 | 0.18 | 55 | 1009.6 |
| 20260507204846 | 17 | 184 | 3.2 | 9.7 | 0.00 | 0.18 | 0.18 | 52 | 1009.4 |
| 20260507204343 | 16 | 132 | 4.8 | 9.7 | 0.00 | 0.18 | 0.18 | 52 | 1009.4 |
| 20260507203841 | 17 | 143 | 8.0 | 20.9 | 0.00 | 0.18 | 0.18 | 50 | 1009.6 |
| 20260507203339 | 17 | 195 | 3.2 | 6.4 | 0.00 | 0.18 | 0.18 | 50 | 1009.5 |
| 20260507202834 | 18 | 188 | 1.6 | 6.4 | 0.00 | 0.18 | 0.18 | 49 | 1009.5 |
| 20260507202331 | 18 | 176 | 0.0 | 6.4 | 0.00 | 0.18 | 0.18 | 50 | 1009.5 |
| 20260507201827 | 17 | 173 | 3.2 | 9.7 | 0.00 | 0.18 | 0.18 | 48 | 1009.6 |
| 20260507201322 | 18 | 144 | 3.2 | 4.8 | 0.00 | 0.18 | 0.18 | 48 | 1009.6 |
| 20260507200819 | 17 | 244 | 4.8 | 12.9 | 0.00 | 0.18 | 0.18 | 49 | 1009.5 |
| 20260507200315 | 18 | 198 | 4.8 | 11.3 | 0.00 | 0.18 | 0.18 | 49 | 1009.6 |
| 20260507195811 | 17 | 236 | 1.6 | 4.8 | 0.00 | 0.18 | 0.18 | 49 | 1009.4 |
| 20260507195309 | 17 | 201 | 4.8 | 6.4 | 0.00 | 0.18 | 0.18 | 48 | 1009.6 |
| 20260507194806 | 17 | 244 | 1.6 | 11.3 | 0.00 | 0.18 | 0.18 | 50 | 1009.5 |
| 20260507194302 | 17 | 187 | 4.8 | 11.3 | 0.00 | 0.18 | 0.18 | 49 | 1009.6 |
| 20260507193758 | 18 | 176 | 4.8 | 11.3 | 0.00 | 0.18 | 0.18 | 48 | 1009.7 |
| 20260507193255 | 17 | 231 | 1.6 | 3.2 | 0.00 | 0.18 | 0.18 | 48 | 1009.5 |
| 20260507192751 | 18 | 144 | 6.4 | 12.9 | 0.00 | 0.18 | 0.18 | 43 | 1009.8 |
| 20260507192248 | 18 | 182 | 4.8 | 11.3 | 0.00 | 0.18 | 0.18 | 42 | 1009.8 |
| 20260507191744 | 18 | 232 | 3.2 | 4.8 | 0.00 | 0.18 | 0.18 | 42 | 1010.0 |
| 20260507191241 | 19 | 202 | 0.0 | 3.2 | 0.00 | 0.18 | 0.18 | 40 | 1009.9 |
| 20260507190738 | 20 | 181 | 3.2 | 6.4 | 0.00 | 0.18 | 0.18 | 41 | 1009.9 |
| 20260507190237 | 18 | 225 | 1.6 | 3.2 | 0.00 | 0.18 | 0.18 | 43 | 1010.1 |
| 20260507185735 | 18 | 76 | 6.4 | 9.7 | 0.00 | 0.18 | 0.18 | 40 | 1010.4 |
| 20260507185231 | 19 | 89 | 3.2 | 9.7 | 0.00 | 0.18 | 0.18 | 39 | 1010.3 |
| 20260507184729 | 18 | 254 | 1.6 | 3.2 | 0.00 | 0.18 | 0.18 | 41 | 1010.1 |
| 20260507184227 | 18 | 161 | 3.2 | 4.8 | 0.00 | 0.18 | 0.18 | 41 | 1010.3 |
| 20260507183723 | 18 | 52 | 3.2 | 4.8 | 0.00 | 0.18 | 0.18 | 40 | 1010.4 |
| 20260507183220 | 18 | 116 | 3.2 | 4.8 | 0.00 | 0.18 | 0.18 | 41 | 1010.4 |
| 20260507182717 | 18 | 173 | 3.2 | 6.4 | 0.00 | 0.18 | 0.18 | 39 | 1010.7 |
| 20260507182212 | 17 | 222 | 1.6 | 6.4 | 0.00 | 0.18 | 0.18 | 40 | 1010.9 |
| 20260507181709 | 17 | 179 | 1.6 | 6.4 | 0.00 | 0.18 | 0.18 | 40 | 1010.8 |
| 20260507181206 | 17 | 150 | 1.6 | 6.4 | 0.00 | 0.18 | 0.18 | 40 | 1010.9 |
| 20260507180702 | 16 | 127 | 3.2 | 4.8 | 0.00 | 0.18 | 0.18 | 44 | 1011.1 |
| 20260507180159 | 16 | 180 | 3.2 | 6.4 | 0.00 | 0.18 | 0.18 | 42 | 1011.1 |
| 20260507175655 | 16 | 106 | 3.2 | 9.7 | 0.00 | 0.18 | 0.18 | 43 | 1011.1 |
| 20260507175152 | 16 | 71 | 3.2 | 4.8 | 0.00 | 0.18 | 0.18 | 44 | 1011.1 |
| 20260507174650 | 16 | 168 | 1.6 | 9.7 | 0.00 | 0.18 | 0.18 | 44 | 1011.2 |
| 20260507174148 | 17 | 181 | 0.0 | 6.4 | 0.00 | 0.18 | 0.18 | 42 | 1011.0 |
| 20260507173645 | 17 | 201 | 3.2 | 3.2 | 0.00 | 0.18 | 0.18 | 44 | 1011.3 |
| 20260507173141 | 15 | 253 | 0.0 | 1.6 | 0.00 | 0.18 | 0.18 | 46 | 1011.5 |
| 20260507172638 | 17 | 243 | 6.4 | 9.7 | 0.00 | 0.18 | 0.18 | 41 | 1011.8 |
| 20260507172135 | 17 | 220 | 1.6 | 3.2 | 0.00 | 0.18 | 0.18 | 44 | 1011.8 |
| 20260507171635 | 17 | 210 | 1.6 | 3.2 | 0.00 | 0.18 | 0.18 | 43 | 1012.0 |
| 20260507171133 | 16 | 334 | 0.0 | 0.0 | 0.00 | 0.18 | 0.18 | 43 | 1011.9 |
| 20260507170630 | 15 | 109 | 3.2 | 4.8 | 0.00 | 0.18 | 0.18 | 44 | 1011.9 |
| 20260507170127 | 15 | 59 | 4.8 | 6.4 | 0.00 | 0.18 | 0.18 | 44 | 1012.1 |
| 20260507165622 | 15 | 218 | 0.0 | 1.6 | 0.00 | 0.18 | 0.18 | 45 | 1012.3 |
| 20260507165119 | 16 | 215 | 1.6 | 1.6 | 0.00 | 0.18 | 0.18 | 44 | 1012.3 |
| 20260507164615 | 16 | 88 | 1.6 | 1.6 | 0.00 | 0.18 | 0.18 | 44 | 1012.2 |
| 20260507164112 | 16 | 43 | 0.0 | 1.6 | 0.00 | 0.18 | 0.18 | 46 | 1012.3 |
| 20260507163609 | 15 | 78 | 0.0 | 3.2 | 0.00 | 0.18 | 0.18 | 46 | 1012.1 |
| 20260507163107 | 15 | 97 | 1.6 | 3.2 | 0.00 | 0.18 | 0.18 | 46 | 1012.3 |
| 20260507162602 | 15 | 239 | 1.6 | 4.8 | 0.00 | 0.18 | 0.18 | 47 | 1012.4 |
| 20260507162059 | 15 | 205 | 0.0 | 4.8 | 0.00 | 0.18 | 0.18 | 49 | 1012.6 |
| 20260507161555 | 14 | 257 | 0.0 | 1.6 | 0.00 | 0.18 | 0.18 | 49 | 1012.8 |
| 20260507161052 | 14 | 224 | 0.0 | 1.6 | 0.00 | 0.18 | 0.18 | 51 | 1012.7 |
| 20260507160548 | 14 | 233 | 0.0 | 1.6 | 0.00 | 0.18 | 0.18 | 50 | 1012.7 |
| 20260507160044 | 14 | 63 | 1.6 | 3.2 | 0.00 | 0.18 | 0.18 | 50 | 1012.9 |
| 20260507155540 | 14 | 253 | 0.0 | 6.4 | 0.00 | 0.18 | 0.18 | 52 | 1012.8 |
| 20260507155037 | 13 | 242 | 0.0 | 0.0 | 0.00 | 0.18 | 0.18 | 56 | 1012.9 |
| 20260507154534 | 13 | 258 | 4.8 | 4.8 | 0.00 | 0.18 | 0.18 | 55 | 1012.8 |
| 20260507154031 | 13 | 265 | 3.2 | 6.4 | 0.00 | 0.18 | 0.18 | 54 | 1013.0 |
| 20260507153528 | 13 | 238 | 0.0 | 0.0 | 0.00 | 0.18 | 0.18 | 55 | 1013.0 |
| 20260507153024 | 13 | 240 | 0.0 | 1.6 | 0.00 | 0.18 | 0.18 | 53 | 1013.0 |
| 20260507152520 | 14 | 240 | 0.0 | 3.2 | 0.00 | 0.18 | 0.18 | 54 | 1013.3 |
| 20260507152016 | 14 | 239 | 1.6 | 1.6 | 0.00 | 0.18 | 0.18 | 54 | 1013.2 |
| 20260507151513 | 13 | 243 | 0.0 | 0.0 | 0.00 | 0.18 | 0.18 | 57 | 1013.0 |
| 20260507151010 | 13 | 253 | 1.6 | 1.6 | 0.00 | 0.18 | 0.18 | 56 | 1012.8 |
| 20260507150507 | 13 | 46 | 0.0 | 1.6 | 0.00 | 0.18 | 0.18 | 58 | 1013.3 |
| 20260507150004 | 13 | 223 | 1.6 | 3.2 | 0.00 | 0.18 | 0.18 | 60 | 1013.1 |
| 20260507145458 | 13 | 239 | 0.0 | 1.6 | 0.00 | 0.18 | 0.18 | 62 | 1013.2 |
| 20260507144956 | 13 | 242 | 1.6 | 3.2 | 0.00 | 0.18 | 0.18 | 61 | 1013.5 |
| 20260507144453 | 12 | 40 | 0.0 | 3.2 | 0.00 | 0.18 | 0.18 | 61 | 1013.3 |
| 20260507143949 | 12 | 244 | 0.0 | 0.0 | 0.00 | 0.18 | 0.18 | 65 | 1013.5 |
| 20260507143447 | 12 | 264 | 0.0 | 0.0 | 0.00 | 0.18 | 0.18 | 63 | 1013.5 |
| 20260507142944 | 12 | 290 | 1.6 | 3.2 | 0.00 | 0.18 | 0.18 | 65 | 1013.5 |
| 20260507142439 | 11 | 248 | 0.0 | 3.2 | 0.00 | 0.18 | 0.18 | 65 | 1013.5 |
| 20260507141937 | 11 | 286 | 3.2 | 3.2 | 0.00 | 0.18 | 0.18 | 64 | 1013.7 |
| 20260507141432 | 11 | 326 | 4.8 | 9.7 | 0.00 | 0.18 | 0.18 | 63 | 1013.8 |
| 20260507140929 | 11 | 4 | 0.0 | 1.6 | 0.00 | 0.18 | 0.18 | 65 | 1013.7 |
| 20260507140426 | 11 | 267 | 1.6 | 3.2 | 0.00 | 0.18 | 0.18 | 65 | 1013.7 |
| 20260507135924 | 11 | 244 | 1.6 | 3.2 | 0.00 | 0.18 | 0.18 | 65 | 1013.7 |
| 20260507135420 | 11 | 253 | 1.6 | 1.6 | 0.00 | 0.18 | 0.18 | 65 | 1013.9 |
| 20260507134918 | 12 | 296 | 0.0 | 6.4 | 0.00 | 0.18 | 0.18 | 63 | 1013.8 |
| 20260507134414 | 12 | 253 | 0.0 | 0.0 | 0.00 | 0.18 | 0.18 | 65 | 1013.7 |
| 20260507133910 | 11 | 254 | 0.0 | 0.0 | 0.00 | 0.18 | 0.18 | 64 | 1013.8 |
| 20260507133406 | 11 | 287 | 1.6 | 4.8 | 0.00 | 0.18 | 0.18 | 64 | 1013.8 |
| 20260507132905 | 11 | 301 | 1.6 | 4.8 | 0.00 | 0.18 | 0.18 | 63 | 1014.0 |
| 20260507132401 | 11 | 27 | 1.6 | 4.8 | 0.00 | 0.18 | 0.18 | 65 | 1013.9 |
| 20260507131858 | 11 | 266 | 3.2 | 4.8 | 0.00 | 0.18 | 0.18 | 67 | 1013.7 |
| 20260507131355 | 11 | 329 | 1.6 | 6.4 | 0.00 | 0.18 | 0.18 | 66 | 1013.9 |
| 20260507130852 | 11 | 238 | 0.0 | 1.6 | 0.00 | 0.18 | 0.18 | 69 | 1013.7 |
| 20260507130349 | 11 | 52 | 1.6 | 11.3 | 0.00 | 0.18 | 0.18 | 69 | 1013.8 |
| 20260507125848 | 11 | 256 | 0.0 | 3.2 | 0.00 | 0.18 | 0.18 | 72 | 1013.5 |
| 20260507125345 | 11 | 284 | 0.0 | 1.6 | 0.00 | 0.18 | 0.18 | 72 | 1013.8 |
| 20260507124842 | 11 | 282 | 0.0 | 3.2 | 0.00 | 0.18 | 0.18 | 74 | 1013.9 |
| 20260507124338 | 11 | 247 | 0.0 | 1.6 | 0.00 | 0.18 | 0.18 | 73 | 1013.8 |
| 20260507123837 | 11 | 310 | 0.0 | 0.0 | 0.00 | 0.18 | 0.18 | 74 | 1013.6 |
| 20260507123334 | 11 | 258 | 1.6 | 3.2 | 0.00 | 0.18 | 0.18 | 75 | 1014.0 |
| 20260507122830 | 11 | 246 | 0.0 | 1.6 | 0.00 | 0.18 | 0.18 | 75 | 1013.9 |
| 20260507122325 | 11 | 258 | 1.6 | 3.2 | 0.00 | 0.18 | 0.18 | 74 | 1013.7 |
| 20260507121823 | 11 | 277 | 0.0 | 0.0 | 0.00 | 0.18 | 0.18 | 77 | 1013.6 |
| 20260507121317 | 11 | 254 | 0.0 | 1.6 | 0.00 | 0.18 | 0.18 | 74 | 1013.7 |
| 20260507120814 | 11 | 258 | 0.0 | 1.6 | 0.00 | 0.18 | 0.18 | 75 | 1013.7 |
| 20260507120310 | 11 | 229 | 0.0 | 1.6 | 0.00 | 0.18 | 0.18 | 75 | 1013.6 |
| 20260507115807 | 11 | 304 | 0.0 | 1.6 | 0.00 | 0.18 | 0.18 | 76 | 1013.5 |
| 20260507115306 | 11 | 56 | 1.6 | 9.7 | 0.00 | 0.18 | 0.18 | 76 | 1013.5 |
| 20260507114758 | 11 | 247 | 3.2 | 6.4 | 0.00 | 0.18 | 0.18 | 79 | 1013.6 |
| 20260507114256 | 11 | 166 | 0.0 | 0.0 | 0.00 | 0.18 | 0.18 | 83 | 1013.3 |
| 20260507113753 | 11 | 250 | 0.0 | 4.8 | 0.00 | 0.18 | 0.18 | 86 | 1013.3 |
| 20260507113250 | 11 | 249 | 1.6 | 3.2 | 0.00 | 0.18 | 0.18 | 88 | 1013.2 |
| 20260507112748 | 11 | 73 | 0.0 | 1.6 | 0.00 | 0.18 | 0.18 | 91 | 1013.2 |
| 20260507112244 | 12 | 286 | 3.2 | 3.2 | 0.00 | 0.18 | 0.18 | 93 | 1013.3 |
| 20260507111742 | 12 | 256 | 0.0 | 1.6 | 0.00 | 0.18 | 0.18 | 94 | 1013.2 |
| 20260507111238 | 12 | 258 | 0.0 | 1.6 | 0.00 | 0.18 | 0.18 | 95 | 1013.1 |
| 20260507110735 | 12 | 257 | 0.0 | 0.0 | 0.00 | 0.18 | 0.18 | 95 | 1013.2 |
| 20260507110231 | 12 | 348 | 0.0 | 0.0 | 0.00 | 0.18 | 0.18 | 95 | 1013.1 |
| 20260507105728 | 12 | 269 | 0.0 | 0.0 | 0.00 | 0.18 | 0.18 | 96 | 1013.2 |
| 20260507105224 | 12 | 268 | 0.0 | 0.0 | 0.00 | 0.18 | 0.18 | 96 | 1013.2 |
| 20260507104722 | 12 | 269 | 0.0 | 0.0 | 0.00 | 0.18 | 0.18 | 96 | 1013.1 |
| 20260507104218 | 12 | 268 | 0.0 | 0.0 | 0.00 | 0.18 | 0.18 | 96 | 1012.8 |
| 20260507103714 | 12 | 269 | 0.0 | 1.6 | 0.00 | 0.18 | 0.18 | 96 | 1012.8 |
| 20260507103211 | 12 | 262 | 0.0 | 0.0 | 0.00 | 0.18 | 0.18 | 96 | 1012.8 |
| 20260507102707 | 12 | 260 | 0.0 | 1.6 | 0.00 | 0.18 | 0.18 | 96 | 1012.8 |
| 20260507102204 | 12 | 259 | 0.0 | 0.0 | 0.00 | 0.18 | 0.18 | 96 | 1012.6 |
| 20260507101700 | 12 | 259 | 0.0 | 0.0 | 0.00 | 0.18 | 0.18 | 96 | 1012.5 |
| 20260507101155 | 12 | 260 | 0.0 | 0.0 | 0.00 | 0.18 | 0.18 | 96 | 1012.6 |
| 20260507100653 | 12 | 351 | 0.0 | 1.6 | 0.00 | 0.18 | 0.18 | 96 | 1012.8 |
| 20260507100151 | 12 | 228 | 0.0 | 0.0 | 0.00 | 0.18 | 0.18 | 96 | 1012.5 |
| 20260507095649 | 12 | 258 | 0.0 | 0.0 | 0.00 | 0.18 | 0.18 | 96 | 1012.6 |
| 20260507095145 | 12 | 258 | 0.0 | 0.0 | 0.00 | 0.18 | 0.18 | 96 | 1012.6 |
| 20260507094642 | 12 | 245 | 0.0 | 0.0 | 0.00 | 0.18 | 0.18 | 96 | 1012.7 |
| 20260507094138 | 12 | 229 | 0.0 | 0.0 | 0.00 | 0.18 | 0.18 | 96 | 1012.6 |
| 20260507093636 | 12 | 230 | 0.0 | 0.0 | 0.00 | 0.18 | 0.18 | 96 | 1012.5 |
| 20260507093134 | 12 | 229 | 0.0 | 0.0 | 0.00 | 0.18 | 0.18 | 96 | 1012.6 |
| 20260507092631 | 12 | 229 | 0.0 | 0.0 | 0.00 | 0.18 | 0.18 | 96 | 1012.7 |
| 20260507092127 | 12 | 225 | 0.0 | 0.0 | 0.00 | 0.18 | 0.18 | 95 | 1012.3 |
| 20260507091624 | 12 | 325 | 0.0 | 0.0 | 0.00 | 0.18 | 0.18 | 95 | 1012.2 |
| 20260507091120 | 12 | 240 | 0.0 | 0.0 | 0.00 | 0.18 | 0.18 | 95 | 1012.4 |
| 20260507090616 | 12 | 191 | 0.0 | 0.0 | 0.00 | 0.18 | 0.18 | 95 | 1012.4 |
| 20260507090113 | 12 | 254 | 0.0 | 0.0 | 0.00 | 0.18 | 0.18 | 95 | 1012.6 |
| 20260507085610 | 12 | 259 | 0.0 | 0.0 | 0.00 | 0.18 | 0.18 | 95 | 1012.4 |
| 20260507085107 | 12 | 254 | 0.0 | 0.0 | 0.00 | 0.18 | 0.18 | 95 | 1012.3 |
| 20260507084603 | 12 | 255 | 0.0 | 0.0 | 0.00 | 0.18 | 0.18 | 95 | 1012.2 |
| 20260507084101 | 12 | 247 | 0.0 | 0.0 | 0.00 | 0.18 | 0.18 | 94 | 1012.2 |
| 20260507083556 | 12 | 247 | 0.0 | 0.0 | 0.00 | 0.18 | 0.18 | 94 | 1012.5 |
| 20260507083054 | 12 | 247 | 0.0 | 0.0 | 0.00 | 0.18 | 0.18 | 94 | 1012.4 |
| 20260507082549 | 12 | 248 | 0.0 | 0.0 | 0.00 | 0.18 | 0.18 | 94 | 1012.4 |
| 20260507082046 | 12 | 251 | 0.0 | 1.6 | 0.00 | 0.18 | 0.18 | 94 | 1012.3 |
| 20260507081543 | 12 | 222 | 0.0 | 0.0 | 0.00 | 0.18 | 0.18 | 94 | 1012.1 |
| 20260507081040 | 12 | 204 | 0.0 | 0.0 | 0.00 | 0.18 | 0.18 | 94 | 1011.7 |
| 20260507080535 | 12 | 205 | 0.0 | 1.6 | 0.00 | 0.18 | 0.18 | 94 | 1011.8 |
| 20260507080032 | 12 | 250 | 0.0 | 3.2 | 0.00 | 0.18 | 0.18 | 94 | 1011.6 |
| 20260507075527 | 12 | 297 | 3.2 | 4.8 | 0.00 | 0.18 | 0.18 | 94 | 1011.7 |
| 20260507075024 | 12 | 232 | 0.0 | 1.6 | 0.00 | 0.18 | 0.18 | 94 | 1011.8 |
| 20260507074521 | 12 | 259 | 0.0 | 4.8 | 0.00 | 0.18 | 0.18 | 94 | 1011.8 |
| 20260507074020 | 12 | 258 | 0.0 | 1.6 | 0.00 | 0.18 | 0.18 | 94 | 1011.7 |
| 20260507073515 | 12 | 278 | 1.6 | 3.2 | 0.00 | 0.18 | 0.18 | 94 | 1011.4 |
| 20260507073012 | 12 | 253 | 0.0 | 1.6 | 0.00 | 0.18 | 0.18 | 93 | 1011.4 |
| 20260507072509 | 12 | 273 | 1.6 | 4.8 | 0.00 | 0.18 | 0.18 | 93 | 1011.6 |
| 20260507072006 | 12 | 256 | 0.0 | 3.2 | 0.00 | 0.18 | 0.18 | 93 | 1011.5 |
| 20260507071504 | 12 | 305 | 3.2 | 3.2 | 0.13 | 0.18 | 0.18 | 93 | 1011.5 |
| 20260507071000 | 12 | 254 | 1.6 | 3.2 | 0.30 | 0.18 | 0.18 | 93 | 1011.5 |
| 20260507070457 | 12 | 287 | 1.6 | 3.2 | 0.18 | 0.15 | 0.15 | 93 | 1011.4 |
| 20260507065954 | 12 | 273 | 1.6 | 11.3 | 0.00 | 0.13 | 0.13 | 94 | 1011.5 |
| 20260507065451 | 12 | 260 | 0.0 | 1.6 | 0.00 | 0.13 | 0.13 | 94 | 1011.4 |
| 20260507064948 | 12 | 305 | 3.2 | 6.4 | 0.00 | 0.13 | 0.13 | 94 | 1011.5 |
| 20260507064446 | 12 | 227 | 1.6 | 3.2 | 0.00 | 0.13 | 0.13 | 94 | 1011.6 |
| 20260507063944 | 12 | 199 | 0.0 | 3.2 | 0.00 | 0.13 | 0.13 | 94 | 1011.6 |
| 20260507063440 | 12 | 292 | 0.0 | 1.6 | 0.00 | 0.13 | 0.13 | 94 | 1011.7 |
| 20260507062937 | 12 | 227 | 1.6 | 3.2 | 0.00 | 0.13 | 0.13 | 94 | 1011.6 |
| 20260507062434 | 12 | 270 | 0.0 | 3.2 | 0.00 | 0.13 | 0.13 | 94 | 1011.5 |
| 20260507061932 | 12 | 304 | 8.0 | 11.3 | 0.00 | 0.13 | 0.13 | 94 | 1011.4 |
| 20260507061430 | 12 | 326 | 3.2 | 4.8 | 0.00 | 0.13 | 0.13 | 94 | 1011.4 |
| 20260507060928 | 12 | 13 | 3.2 | 6.4 | 0.00 | 0.13 | 0.13 | 94 | 1011.3 |
| 20260507060424 | 12 | 218 | 6.4 | 9.7 | 0.00 | 0.13 | 0.13 | 94 | 1011.4 |
| 20260507055921 | 13 | 338 | 0.0 | 4.8 | 0.00 | 0.13 | 0.13 | 94 | 1011.5 |
| 20260507055416 | 13 | 236 | 1.6 | 3.2 | 0.13 | 0.13 | 0.13 | 94 | 1011.5 |
| 20260507054914 | 13 | 295 | 4.8 | 6.4 | 0.13 | 0.13 | 0.13 | 93 | 1011.7 |
| 20260507054410 | 13 | 218 | 0.0 | 3.2 | 0.00 | 0.10 | 0.10 | 93 | 1011.5 |
| 20260507053907 | 13 | 306 | 1.6 | 3.2 | 0.00 | 0.10 | 0.10 | 93 | 1011.8 |
| 20260507053405 | 13 | 243 | 0.0 | 1.6 | 0.00 | 0.10 | 0.10 | 93 | 1011.6 |
| 20260507052903 | 13 | 277 | 3.2 | 6.4 | 0.00 | 0.10 | 0.10 | 93 | 1011.8 |
| 20260507052400 | 13 | 335 | 1.6 | 3.2 | 0.00 | 0.10 | 0.10 | 92 | 1011.7 |
| 20260507051857 | 13 | 287 | 1.6 | 3.2 | 0.00 | 0.10 | 0.10 | 92 | 1011.3 |
| 20260507051355 | 13 | 262 | 1.6 | 3.2 | 0.00 | 0.10 | 0.10 | 92 | 1011.4 |
| 20260507050851 | 13 | 247 | 1.6 | 3.2 | 0.00 | 0.10 | 0.10 | 91 | 1011.2 |
| 20260507050348 | 13 | 336 | 1.6 | 3.2 | 0.00 | 0.10 | 0.10 | 91 | 1011.7 |
| 20260507045845 | 13 | 356 | 1.6 | 3.2 | 0.18 | 0.10 | 0.10 | 90 | 1011.7 |
| 20260507045341 | 13 | 279 | 1.6 | 3.2 | 0.30 | 0.10 | 0.10 | 89 | 1011.7 |
| 20260507044839 | 13 | 303 | 1.6 | 3.2 | 0.00 | 0.05 | 0.05 | 88 | 1011.9 |
| 20260507044335 | 14 | 14 | 3.2 | 4.8 | 0.00 | 0.05 | 0.05 | 88 | 1011.7 |
| 20260507043831 | 14 | 14 | 1.6 | 1.6 | 0.00 | 0.05 | 0.05 | 88 | 1011.8 |
| 20260507043328 | 15 | 239 | 1.6 | 3.2 | 0.18 | 0.05 | 0.05 | 86 | 1011.5 |
| 20260507042824 | 15 | 91 | 1.6 | 6.4 | 0.36 | 0.05 | 0.05 | 86 | 1011.7 |
| 20260507042320 | 15 | 113 | 3.2 | 4.8 | 0.18 | 0.03 | 0.03 | 84 | 1012.0 |
| 20260507041817 | 16 | 300 | 0.0 | 3.2 | 0.00 | 0.00 | 0.00 | 83 | 1011.9 |
| 20260507041313 | 16 | 251 | 1.6 | 3.2 | 0.00 | 0.00 | 0.00 | 81 | 1011.5 |
| 20260507040811 | 16 | 226 | 0.0 | 4.8 | 0.00 | 0.00 | 0.00 | 81 | 1011.6 |
| 20260507040307 | 16 | 272 | 1.6 | 1.6 | 0.00 | 0.00 | 0.00 | 81 | 1011.5 |
| 20260507035802 | 16 | 2 | 3.2 | 3.2 | 0.00 | 0.66 | 0.66 | 81 | 1011.4 |
| 20260507035258 | 16 | 247 | 0.0 | 3.2 | 0.00 | 0.66 | 0.66 | 80 | 1011.2 |
| 20260507034756 | 16 | 271 | 1.6 | 6.4 | 0.00 | 0.66 | 0.66 | 78 | 1011.1 |
| 20260507034252 | 16 | 59 | 3.2 | 9.7 | 0.00 | 0.66 | 0.66 | 77 | 1011.1 |
| 20260507033751 | 17 | 249 | 1.6 | 4.8 | 0.00 | 0.66 | 0.66 | 76 | 1011.2 |
| 20260507033248 | 17 | 69 | 1.6 | 6.4 | 0.00 | 0.66 | 0.66 | 75 | 1011.1 |
| 20260507032745 | 17 | 304 | 1.6 | 12.9 | 0.00 | 0.66 | 0.66 | 75 | 1011.2 |
| 20260507032241 | 17 | 110 | 0.0 | 3.2 | 0.00 | 0.66 | 0.66 | 75 | 1011.2 |
| 20260507031738 | 17 | 289 | 3.2 | 6.4 | 0.00 | 0.66 | 0.66 | 75 | 1011.1 |
| 20260507031235 | 17 | 30 | 3.2 | 9.7 | 0.00 | 0.66 | 0.66 | 76 | 1011.3 |
| 20260507030731 | 17 | 242 | 3.2 | 4.8 | 0.00 | 0.66 | 0.66 | 75 | 1011.1 |
| 20260507030229 | 17 | 282 | 1.6 | 3.2 | 0.00 | 0.66 | 0.66 | 75 | 1010.7 |
| 20260507025726 | 17 | 292 | 1.6 | 4.8 | 0.00 | 0.66 | 0.66 | 75 | 1010.4 |
| 20260507025223 | 17 | 345 | 4.8 | 16.1 | 0.00 | 0.66 | 0.66 | 74 | 1010.6 |
| 20260507024721 | 17 | 339 | 1.6 | 9.7 | 0.00 | 0.66 | 0.66 | 74 | 1010.8 |
| 20260507024218 | 17 | 54 | 3.2 | 11.3 | 0.00 | 0.66 | 0.66 | 74 | 1011.0 |
| 20260507023714 | 17 | 269 | 12.9 | 14.5 | 0.00 | 0.66 | 0.66 | 75 | 1011.0 |
| 20260507023211 | 17 | 342 | 4.8 | 17.7 | 0.00 | 0.66 | 0.66 | 75 | 1010.9 |
| 20260507022708 | 18 | 68 | 1.6 | 6.4 | 0.00 | 0.66 | 0.66 | 78 | 1010.6 |
| 20260507022204 | 18 | 209 | 1.6 | 6.4 | 0.00 | 0.66 | 0.66 | 78 | 1010.6 |
| 20260507021700 | 18 | 242 | 0.0 | 1.6 | 0.00 | 0.66 | 0.66 | 79 | 1010.6 |
| 20260507021155 | 18 | 201 | 0.0 | 3.2 | 0.00 | 0.66 | 0.66 | 81 | 1010.6 |
| 20260507020655 | 18 | 26 | 0.0 | 4.8 | 0.00 | 0.66 | 0.66 | 80 | 1010.4 |
| 20260507020150 | 18 | 277 | 3.2 | 4.8 | 0.00 | 0.66 | 0.66 | 80 | 1010.5 |
| 20260507015648 | 18 | 320 | 1.6 | 9.7 | 0.00 | 0.66 | 0.66 | 80 | 1010.2 |
| 20260507015145 | 18 | 291 | 4.8 | 9.7 | 0.00 | 0.66 | 0.66 | 80 | 1010.2 |
| 20260507014642 | 18 | 276 | 3.2 | 9.7 | 0.00 | 0.66 | 0.66 | 80 | 1010.2 |
| 20260507014138 | 19 | 266 | 3.2 | 11.3 | 0.00 | 0.66 | 0.66 | 81 | 1010.1 |
| 20260507013635 | 19 | 263 | 1.6 | 4.8 | 0.00 | 0.66 | 0.66 | 82 | 1010.4 |
| 20260507013132 | 20 | 233 | 3.2 | 4.8 | 0.00 | 0.66 | 0.66 | 82 | 1010.3 |
| 20260507012629 | 20 | 300 | 8.0 | 11.3 | 0.00 | 0.66 | 0.66 | 83 | 1010.3 |
| 20260507012124 | 20 | 276 | 1.6 | 3.2 | 0.00 | 0.66 | 0.66 | 83 | 1010.3 |
| 20260507011623 | 20 | 233 | 1.6 | 1.6 | 0.00 | 0.66 | 0.66 | 83 | 1010.4 |
| 20260507011119 | 20 | 261 | 1.6 | 3.2 | 0.00 | 0.66 | 0.66 | 83 | 1010.4 |
| 20260507010614 | 20 | 220 | 0.0 | 0.0 | 0.00 | 0.66 | 0.66 | 84 | 1010.4 |
| 20260507010110 | 20 | 270 | 1.6 | 1.6 | 0.00 | 0.66 | 0.66 | 84 | 1010.1 |
| 20260507005608 | 19 | 266 | 1.6 | 1.6 | 0.00 | 0.66 | 0.66 | 85 | 1010.3 |
| 20260507005104 | 19 | 250 | 0.0 | 0.0 | 0.00 | 0.66 | 0.66 | 85 | 1010.2 |
| 20260507004601 | 19 | 230 | 0.0 | 0.0 | 0.00 | 0.66 | 0.66 | 85 | 1010.3 |
| 20260507004058 | 19 | 229 | 0.0 | 0.0 | 0.00 | 0.66 | 0.66 | 85 | 1010.1 |
| 20260507003554 | 19 | 229 | 0.0 | 0.0 | 0.00 | 0.66 | 0.66 | 85 | 1010.2 |
| 20260507003049 | 20 | 229 | 0.0 | 0.0 | 0.00 | 0.66 | 0.66 | 84 | 1009.8 |
| 20260507002546 | 20 | 229 | 0.0 | 0.0 | 0.00 | 0.66 | 0.66 | 83 | 1010.0 |
| 20260507002042 | 20 | 185 | 0.0 | 0.0 | 0.00 | 0.66 | 0.66 | 82 | 1009.7 |
| 20260507001539 | 20 | 212 | 0.0 | 0.0 | 0.00 | 0.66 | 0.66 | 82 | 1009.8 |
| 20260507001036 | 20 | 222 | 0.0 | 0.0 | 0.00 | 0.66 | 0.66 | 82 | 1009.9 |
| 20260507000532 | 20 | 214 | 0.0 | 0.0 | 0.00 | 0.66 | 0.66 | 81 | 1009.7 |
| 20260507000028 | 20 | 214 | 0.0 | 0.0 | 0.00 | 0.66 | 0.66 | 81 | 1009.9 |
| 20260506235526 | 20 | 214 | 0.0 | 0.0 | 0.00 | 0.66 | 0.66 | 81 | 1009.7 |
| 20260506235021 | 20 | 214 | 0.0 | 0.0 | 0.00 | 0.66 | 0.66 | 80 | 1009.8 |
| 20260506234519 | 20 | 214 | 0.0 | 0.0 | 0.00 | 0.66 | 0.66 | 80 | 1009.8 |
| 20260506234016 | 20 | 203 | 0.0 | 0.0 | 0.00 | 0.66 | 0.66 | 80 | 1009.6 |
| 20260506233512 | 20 | 202 | 0.0 | 0.0 | 0.00 | 0.66 | 0.66 | 79 | 1009.6 |
| 20260506233009 | 20 | 208 | 0.0 | 0.0 | 0.00 | 0.66 | 0.66 | 80 | 1009.4 |
| 20260506232505 | 20 | 197 | 0.0 | 0.0 | 0.00 | 0.66 | 0.66 | 79 | 1009.3 |
| 20260506232001 | 20 | 231 | 0.0 | 0.0 | 0.00 | 0.66 | 0.66 | 79 | 1009.5 |
| 20260506231459 | 20 | 215 | 3.2 | 4.8 | 0.00 | 0.66 | 0.66 | 78 | 1009.3 |
| 20260506230956 | 20 | 191 | 0.0 | 0.0 | 0.00 | 0.66 | 0.66 | 79 | 1009.1 |
| 20260506230452 | 20 | 162 | 0.0 | 1.6 | 0.00 | 0.66 | 0.66 | 78 | 1009.2 |
| 20260506225949 | 20 | 211 | 1.6 | 3.2 | 0.00 | 0.66 | 0.66 | 78 | 1009.4 |
| 20260506225446 | 21 | 222 | 3.2 | 4.8 | 0.00 | 0.66 | 0.66 | 76 | 1009.1 |
| 20260506224943 | 21 | 198 | 0.0 | 0.0 | 0.00 | 0.66 | 0.66 | 77 | 1009.0 |
| 20260506224440 | 21 | 266 | 1.6 | 3.2 | 0.00 | 0.66 | 0.66 | 77 | 1008.9 |
| 20260506223936 | 21 | 248 | 1.6 | 1.6 | 0.00 | 0.66 | 0.66 | 77 | 1009.0 |
| 20260506223432 | 21 | 211 | 4.8 | 6.4 | 0.00 | 0.66 | 0.66 | 76 | 1009.1 |
| 20260506222930 | 21 | 201 | 0.0 | 1.6 | 0.00 | 0.66 | 0.66 | 77 | 1009.2 |
| 20260506222426 | 21 | 200 | 1.6 | 4.8 | 0.00 | 0.66 | 0.66 | 75 | 1009.1 |
| 20260506221923 | 21 | 236 | 0.0 | 1.6 | 0.00 | 0.66 | 0.66 | 76 | 1008.9 |
| 20260506221420 | 21 | 203 | 0.0 | 3.2 | 0.00 | 0.66 | 0.66 | 76 | 1008.9 |
| 20260506220918 | 21 | 219 | 3.2 | 4.8 | 0.00 | 0.66 | 0.66 | 75 | 1008.9 |
| 20260506220413 | 21 | 229 | 0.0 | 3.2 | 0.00 | 0.66 | 0.66 | 74 | 1009.0 |
| 20260506215910 | 22 | 218 | 1.6 | 6.4 | 0.00 | 0.66 | 0.66 | 73 | 1009.0 |
| 20260506215406 | 21 | 194 | 1.6 | 4.8 | 0.00 | 0.66 | 0.66 | 74 | 1008.8 |
| 20260506214902 | 22 | 199 | 4.8 | 9.7 | 0.00 | 0.66 | 0.66 | 73 | 1008.9 |
| 20260506214359 | 22 | 210 | 1.6 | 4.8 | 0.00 | 0.66 | 0.66 | 73 | 1008.8 |
| 20260506213857 | 21 | 207 | 1.6 | 4.8 | 0.00 | 0.66 | 0.66 | 74 | 1009.1 |
| 20260506213354 | 21 | 239 | 1.6 | 6.4 | 0.00 | 0.66 | 0.66 | 74 | 1009.1 |
| 20260506212851 | 21 | 283 | 3.2 | 6.4 | 0.00 | 0.66 | 0.66 | 75 | 1009.0 |
| 20260506212347 | 21 | 246 | 1.6 | 4.8 | 0.00 | 0.66 | 0.66 | 74 | 1008.8 |
| 20260506211842 | 21 | 240 | 3.2 | 4.8 | 0.00 | 0.66 | 0.66 | 74 | 1008.9 |
| 20260506211338 | 22 | 224 | 4.8 | 6.4 | 0.00 | 0.66 | 0.66 | 72 | 1008.8 |
| 20260506210836 | 22 | 210 | 1.6 | 6.4 | 0.00 | 0.66 | 0.66 | 72 | 1008.9 |
| 20260506210332 | 22 | 236 | 0.0 | 4.8 | 0.00 | 0.66 | 0.66 | 73 | 1008.7 |
| 20260506205830 | 21 | 233 | 3.2 | 4.8 | 0.00 | 0.66 | 0.66 | 73 | 1008.5 |